Latest Weather Observations for Giles*

IDW60801

Issued at 3:13 am WST Wednesday 19 September 2018 (issued every 10 minutes, with the page automatically refreshed every 10 minutes)

About weather observations | Map of weather stations | Latest weather observations for WA | Other Formats
Station Details ID: 013017 Name: GILES METEOROLOGICAL OFFICE Lat: -25.03 Lon: 128.30 Height: 598.0 m
Data from the previous 72 hours. | See also: Recent months at Giles*

* Giles observations are collected in the South Australia time zone, which includes daylight saving in the summer period. Therefore, Rain since 9am value is with respect to South Australia local time.

Date/Time
WST
Temp
°C
App
Temp
°C
Dew
Point
°C
Rel
Hum
%
Delta-T
°C
Wind Press
QNH
hPa
Press
MSL
hPa
Rain since
9am
mm
Dir  Spd
km/h
Gust
km/h
Spd
kts
Gust
kts
19/03:00am 9.8 4.5 -0.4 49 4.2 SE 17 22 9 12 1020.7 1018.4 0.0
19/02:30am 10.0 4.7 -0.4 48 4.3 SE 17 20 9 11 1020.5 1018.2 0.0
19/02:00am 10.6 5.3 -0.5 46 4.6 SSE 17 22 9 12 1020.5 1018.2 0.0
19/01:30am 11.2 5.5 -0.6 44 4.9 SE 19 26 10 14 1020.7 1018.4 0.0
19/01:00am 11.7 5.8 -0.8 42 5.2 SSE 20 26 11 14 1020.9 1018.5 0.0
19/12:30am 12.3 6.4 -0.9 40 5.5 SSE 20 26 11 14 1021.1 1018.7 0.0
19/12:00am 12.7 6.9 -1.3 38 5.8 SSE 19 26 10 14 1021.2 1018.8 0.0
 
Date/Time
WST
Temp
°C
App
Temp
°C
Dew
Point
°C
Rel
Hum
%
Delta-T
°C
Wind Press
QNH
hPa
Press
MSL
hPa
Rain since
9am
mm
Dir  Spd
km/h
Gust
km/h
Spd
kts
Gust
kts
18/11:30pm 13.4 7.4 -1.5 35 6.2 SSE 20 28 11 15 1021.2 1018.8 0.0
18/11:00pm 14.0 7.6 -1.6 34 6.5 SSE 22 32 12 17 1021.1 1018.7 0.0
18/10:30pm 14.3 7.8 -2.5 31 6.9 SSE 22 30 12 16 1021.0 1018.6 0.0
18/10:00pm 14.6 7.9 -4.0 27 7.4 SSE 22 30 12 16 1020.9 1018.5 0.0
18/09:30pm 14.7 8.2 -5.5 24 7.8 SSE 20 28 11 15 1020.9 1018.5 0.0
18/09:00pm 12.8 6.8 -6.3 26 7.1 SSE 17 17 9 9 1020.7 1018.4 0.0
18/08:30pm 12.0 7.6 -2.1 37 5.7 SE 11 13 6 7 1020.6 1018.3 0.0
18/08:00pm 13.0 8.2 -2.2 35 6.2 SE 13 15 7 8 1020.4 1018.1 0.0
18/07:30pm 13.6 9.2 -2.3 33 6.5 SE 11 13 6 7 1020.1 1017.7 0.0
18/07:00pm 14.9 10.1 -2.5 30 7.2 SE 13 15 7 8 1019.8 1017.4 0.0
18/06:30pm 16.5 11.2 -3.4 25 8.2 SE 15 20 8 11 1019.6 1017.2 0.0
18/06:00pm 17.3 11.5 -4.3 22 8.8 SSE 17 24 9 13 1019.2 1016.8 0.0
18/05:30pm 18.1 10.6 -4.3 21 9.2 SSE 26 35 14 19 1018.9 1016.6 0.0
18/05:00pm 19.0 11.0 -6.0 18 10.0 S 28 37 15 20 1018.4 1016.0 0.0
18/04:30pm 19.7 11.3 -5.7 17 10.3 SSE 30 39 16 21 1017.7 1015.3 0.0
18/04:00pm 20.0 12.4 -5.9 17 10.5 SSE 26 35 14 19 1018.3 1015.9 0.0
18/03:30pm 20.5 12.1 -5.6 17 10.7 SSE 30 41 16 22 1017.1 1014.7 0.0
18/03:00pm 20.2 12.2 -5.4 17 10.5 SSE 28 37 15 20 1017.0 1014.6 0.0
18/02:30pm 20.4 13.2 -5.4 17 10.6 SSE 24 39 13 21 1017.8 1015.4 0.0
18/02:00pm 21.1 13.5 -5.6 16 11.0 SSE 26 37 14 20 1017.1 1014.7 0.0
18/01:30pm 21.6 14.0 -5.3 16 11.2 SSE 26 41 14 22 1017.4 1015.0 0.0
18/01:00pm 20.4 12.9 -4.9 18 10.5 SSE 26 35 14 19 1017.7 1015.3 0.0
18/12:30pm 21.5 13.7 -4.1 17 10.9 SSE 28 37 15 20 1017.9 1015.5 0.0
18/12:00pm 20.5 13.1 -3.7 19 10.3 SSE 26 37 14 20 1018.1 1015.7 0.0
18/11:30am 21.3 13.7 -2.3 20 10.4 SSE 28 41 15 22 1018.5 1016.1 0.0
18/11:00am 19.6 11.2 -2.3 22 9.5 SSE 32 43 17 23 1018.9 1016.6 0.0
18/10:30am 18.5 10.0 -1.8 25 8.8 SSE 33 46 18 25 1019.5 1017.1 0.0
18/10:20am 18.4 10.1 -2.0 25 8.8 SSE 32 52 17 28 1019.3 1016.9 0.0
18/10:00am 18.0 9.1 -2.0 25 8.6 SSE 35 46 19 25 1019.7 1017.3 0.0
18/09:30am 17.3 8.5 -1.4 28 8.1 SSE 35 50 19 27 1019.9 1017.5 0.0
18/09:00am 16.3 7.1 1.3 36 6.8 SSE 39 50 21 27 1020.0 1017.6 0.0
18/08:30am 15.8 7.2 2.4 40 6.2 SSE 37 56 20 30 1020.1 1017.7 0.0
18/08:26am 15.4 6.8 2.7 42 5.9 SSE 37 56 20 30 1020.1 1017.7 0.0
18/08:00am 14.8 6.8 3.8 47 5.2 SSE 35 50 19 27 1019.9 1017.5 0.0
18/07:38am 14.3 5.9 3.9 49 4.9 SSE 37 59 20 32 1019.4 1017.0 0.0
18/07:30am 14.3 5.6 3.9 49 4.9 SE 39 52 21 28 1019.4 1017.0 0.0
18/07:00am 13.6 5.7 4.3 53 4.4 SSE 35 54 19 29 1019.2 1016.8 0.0
18/06:53am 13.6 6.3 4.6 54 4.3 SSE 32 50 17 27 1019.4 1017.0 0.0
18/06:30am 12.8 5.0 5.1 59 3.7 SSE 35 46 19 25 1018.9 1016.6 0.0
18/06:07am 12.5 5.1 5.2 61 3.5 SSE 33 52 18 28 1018.8 1016.5 0.0
18/06:00am 12.4 5.0 5.1 61 3.5 SSE 33 46 18 25 1018.7 1016.3 0.0
18/05:37am 12.3 5.4 4.7 60 3.6 SSE 30 50 16 27 1018.1 1015.7 0.0
18/05:30am 12.4 5.1 4.5 58 3.7 SSE 32 43 17 23 1018.1 1015.7 0.0
18/05:00am 13.1 5.2 4.2 54 4.2 SSE 35 50 19 27 1017.6 1015.2 0.0
18/04:30am 13.6 6.9 3.5 50 4.7 SSE 28 37 15 20 1016.9 1014.5 0.0
18/04:00am 14.3 7.1 3.1 47 5.2 SSE 30 44 16 24 1016.4 1014.0 0.0
18/03:30am 15.4 7.5 2.1 40 6.1 S 33 50 18 27 1015.9 1013.5 0.0
18/03:28am 15.5 7.6 2.0 40 6.2 S 33 50 18 27 1015.8 1013.3 0.0
18/03:00am 17.1 10.8 -6.1 20 9.1 S 19 32 10 17 1015.0 1012.6 0.0
18/02:30am 17.7 11.2 -8.3 16 9.8 SSW 19 30 10 16 1014.6 1012.2 0.0
18/02:00am 18.2 11.9 -9.8 14 10.3 SSW 17 24 9 13 1014.4 1012.0 0.0
18/01:30am 19.0 13.4 -10.5 12 10.8 SSW 13 24 7 13 1014.2 1011.7 0.0
18/01:00am 20.0 13.7 -10.5 12 11.3 S 17 24 9 13 1013.9 1011.4 0.0
18/12:30am 21.9 15.5 -11.5 10 12.4 WSW 17 28 9 15 1013.5 1011.1 0.0
18/12:00am 23.3 16.6 -10.6 9 13.0 NNW 19 22 10 12 1013.1 1010.7 0.0
 
Date/Time
WST
Temp
°C
App
Temp
°C
Dew
Point
°C
Rel
Hum
%
Delta-T
°C
Wind Press
QNH
hPa
Press
MSL
hPa
Rain since
9am
mm
Dir  Spd
km/h
Gust
km/h
Spd
kts
Gust
kts
17/11:30pm 24.0 17.7 -10.1 9 13.3 N 17 22 9 12 1012.7 1010.2 0.0
17/11:00pm 20.7 15.6 -8.8 13 11.4 NNW 11 13 6 7 1013.0 1010.6 0.0
17/10:30pm 22.3 16.8 -9.4 11 12.3 N 13 15 7 8 1013.1 1010.7 0.0
17/10:00pm 22.5 16.6 -10.0 10 12.5 N 15 19 8 10 1013.3 1010.9 0.0
17/09:30pm 22.9 16.9 -10.7 10 12.8 N 15 19 8 10 1013.4 1011.0 0.0
17/09:00pm 23.6 17.2 -11.0 9 13.2 N 17 19 9 10 1013.6 1011.2 0.0
17/08:30pm 23.2 17.8 -8.9 11 12.7 N 13 13 7 7 1013.8 1011.3 0.0
17/08:00pm 23.9 18.4 -9.2 10 13.1 N 13 13 7 7 1013.9 1011.4 0.0
17/07:30pm 24.5 19.4 -9.7 9 13.5 N 11 13 6 7 1014.0 1011.5 0.0
17/07:00pm 24.6 19.5 -10.0 9 13.6 N 11 13 6 7 1013.9 1011.4 0.0
17/06:30pm 25.1 20.4 -9.6 9 13.8 N 9 11 5 6 1013.5 1011.1 0.0
17/06:00pm 26.0 21.1 -11.2 8 14.5 NW 9 11 5 6 1013.4 1011.0 0.0
17/05:30pm 27.1 21.4 -12.0 7 15.2 NW 13 15 7 8 1013.3 1010.9 0.0
17/05:00pm 29.0 22.4 -14.4 5 16.5 NW 17 24 9 13 1013.1 1010.7 0.0
17/04:30pm 29.8 23.2 -15.0 4 17.0 NW 17 24 9 13 1013.0 1010.6 0.0
17/04:00pm 30.3 23.1 -16.4 4 17.4 WNW 20 26 11 14 1013.0 1010.6 0.0
17/03:30pm 30.8 23.6 -15.4 4 17.6 W 20 37 11 20 1012.9 1010.5 0.0
17/03:00pm 30.5 22.9 -16.3 4 17.5 NW 22 37 12 20 1013.2 1010.8 0.0
17/02:30pm 30.2 23.2 -14.8 4 17.2 WNW 19 28 10 15 1013.3 1010.9 0.0
17/02:00pm 30.2 23.6 -14.8 4 17.2 WSW 17 35 9 19 1013.5 1011.1 0.0
17/01:30pm 29.6 22.0 -15.2 4 16.9 WNW 22 33 12 18 1013.9 1011.4 0.0
17/01:00pm 29.6 23.5 -13.2 5 16.7 WNW 15 26 8 14 1014.3 1011.8 0.0
17/12:30pm 28.9 20.2 -15.1 5 16.5 NNW 28 41 15 22 1014.8 1012.4 0.0
17/12:11pm 29.0 20.4 -13.5 5 16.4 NNW 28 48 15 26 1015.1 1012.7 0.0
17/12:00pm 28.2 19.7 -12.1 6 15.8 NNW 28 44 15 24 1015.4 1013.0 0.0
17/11:47am 28.4 19.4 -12.9 6 16.0 NNW 30 50 16 27 1015.7 1013.2 0.0
17/11:30am 28.7 19.7 -14.3 5 16.3 NNW 30 43 16 23 1016.1 1013.7 0.0
17/11:00am 26.4 17.4 -13.8 6 15.0 N 30 43 16 23 1016.8 1014.4 0.0
17/10:30am 25.8 16.8 -14.0 6 14.7 N 30 41 16 22 1017.4 1015.0 0.0
17/10:00am 25.4 15.8 -14.2 6 14.5 N 33 46 18 25 1017.5 1015.1 0.0
17/09:30am 24.2 14.6 -14.4 7 13.9 N 33 43 18 23 1017.7 1015.3 0.0
17/09:00am 23.3 13.9 -14.1 7 13.4 N 32 44 17 24 1017.9 1015.5 0.0
17/08:30am 21.9 12.0 -13.4 8 12.6 N 35 44 19 24 1018.0 1015.6 0.0
17/08:20am 21.1 11.6 -13.4 9 12.2 N 33 52 18 28 1018.0 1015.6 0.0
17/08:00am 20.6 10.7 -13.0 9 11.9 N 35 50 19 27 1018.1 1015.7 0.0
17/07:30am 20.2 11.6 -12.9 9 11.7 N 28 41 15 22 1018.0 1015.6 0.0
17/07:00am 19.8 12.4 -12.1 10 11.4 N 22 35 12 19 1017.8 1015.4 0.0
17/06:30am 19.3 12.3 -12.5 10 11.2 N 20 32 11 17 1017.7 1015.3 0.0
17/06:00am 18.3 13.6 -9.6 14 10.3 NE 9 22 5 12 1017.6 1015.2 0.0
17/05:30am 16.2 11.5 -9.6 16 9.3 E 9 20 5 11 1017.4 1015.0 0.0
17/05:00am 16.4 12.7 -9.0 16 9.3 E 4 7 2 4 1017.0 1014.6 0.0
17/04:30am 16.7 12.6 -8.2 17 9.3 E 6 9 3 5 1016.8 1014.4 0.0
17/04:00am 17.1 12.4 -9.4 15 9.7 ENE 9 15 5 8 1016.5 1014.1 0.0
17/03:30am 15.5 10.8 -9.2 17 8.9 NE 9 13 5 7 1016.3 1013.9 0.0
17/03:00am 11.5 7.4 -8.7 23 7.0 SSE 6 11 3 6 1016.3 1013.9 0.0
17/02:30am 12.0 7.7 -9.1 22 7.3 SSW 7 11 4 6 1016.2 1013.8 0.0
17/02:00am 13.4 9.4 -7.9 22 7.7 - 6 13 3 7 1016.4 1014.0 0.0
17/01:30am 16.0 9.3 -10.2 15 9.3 ENE 19 24 10 13 1016.5 1014.1 0.0
17/01:00am 16.5 9.2 -10.6 14 9.6 ENE 22 32 12 17 1016.6 1014.2 0.0
17/12:30am 16.3 9.6 -9.9 15 9.4 ENE 19 26 10 14 1017.0 1014.6 0.0
17/12:00am 16.6 10.3 -10.3 15 9.6 ENE 17 22 9 12 1017.5 1015.1 0.0
 
Date/Time
WST
Temp
°C
App
Temp
°C
Dew
Point
°C
Rel
Hum
%
Delta-T
°C
Wind Press
QNH
hPa
Press
MSL
hPa
Rain since
9am
mm
Dir  Spd
km/h
Gust
km/h
Spd
kts
Gust
kts
16/11:30pm 17.0 11.1 -10.4 14 9.8 NE 15 20 8 11 1017.9 1015.5 0.0
16/11:00pm 16.4 10.1 -10.3 15 9.5 ENE 17 22 9 12 1018.1 1015.7 0.0
16/10:30pm 16.2 11.0 -10.3 15 9.4 ENE 11 15 6 8 1018.5 1016.1 0.0
16/10:00pm 17.0 10.6 -11.1 13 9.9 E 17 20 9 11 1018.7 1016.3 0.0
16/09:30pm 17.2 10.4 -11.2 13 10.0 E 19 22 10 12 1019.2 1016.8 0.0
16/09:00pm 15.1 9.5 -10.4 16 8.9 E 13 15 7 8 1019.4 1017.0 0.0
16/08:30pm 15.8 10.3 -9.6 16 9.1 E 13 15 7 8 1019.6 1017.2 0.0
16/08:00pm 16.7 11.2 -9.5 16 9.5 E 13 15 7 8 1019.4 1017.0 0.0
16/07:30pm 17.4 11.5 -9.9 14 9.9 E 15 15 8 8 1019.2 1016.8 0.0
16/07:00pm 17.1 11.9 -10.8 14 9.9 E 11 13 6 7 1018.9 1016.6 0.0
16/06:30pm 19.0 13.4 -10.7 12 10.8 E 13 15 7 8 1018.8 1016.5 0.0
16/06:00pm 19.9 14.8 -9.7 12 11.1 ENE 11 13 6 7 1018.6 1016.2 0.0
16/05:30pm 21.4 16.3 -9.3 12 11.8 NE 11 15 6 8 1018.3 1015.9 0.0
16/05:00pm 23.0 17.3 -12.0 9 13.0 NNE 13 19 7 10 1018.1 1015.7 0.0
16/04:30pm 23.6 17.3 -16.6 6 13.8 NNE 15 24 8 13 1018.0 1015.6 0.0
16/04:00pm 24.0 17.4 -15.5 6 13.9 N 17 24 9 13 1017.9 1015.5 0.0
16/03:30pm 24.0 17.2 -11.9 8 13.5 NE 19 28 10 15 1017.9 1015.5 0.0
16/03:00pm 24.3 18.6 -12.2 8 13.7 NNE 13 24 7 13 1018.0 1015.6 0.0
16/02:30pm 24.2 18.1 -13.5 7 13.8 NE 15 24 8 13 1018.1 1015.7 0.0
16/02:00pm 23.8 17.4 -11.9 8 13.4 ENE 17 26 9 14 1018.4 1016.0 0.0
16/01:30pm 23.3 17.2 -12.4 8 13.2 E 15 26 8 14 1018.7 1016.3 0.0
16/01:00pm 23.3 18.8 -11.7 9 13.1 NNE 7 20 4 11 1019.3 1016.9 0.0
16/12:30pm 23.5 17.5 -11.7 9 13.2 NE 15 20 8 11 1019.8 1017.4 0.0
16/12:00pm 22.2 16.6 -11.4 9 12.5 ENE 13 22 7 12 1020.1 1017.7 0.0
16/11:30am 21.7 16.0 -11.9 9 12.3 ENE 13 24 7 13 1020.6 1018.3 0.0
16/11:00am 20.3 14.5 -9.2 13 11.2 ENE 15 26 8 14 1021.4 1019.0 0.0
16/10:30am 19.6 13.3 -10.2 12 11.0 ENE 17 28 9 15 1022.1 1019.8 0.0
16/10:00am 18.4 12.9 -9.4 14 10.3 ENE 13 26 7 14 1022.5 1020.2 0.0
16/09:30am 17.9 12.0 -9.7 14 10.1 E 15 22 8 12 1023.0 1020.6 0.0
16/09:00am 16.9 10.1 -9.6 15 9.6 ENE 20 30 11 16 1023.1 1020.7 0.0
16/08:30am 16.0 8.4 -9.2 17 9.1 ENE 24 39 13 21 1023.3 1021.0 0.0
16/08:00am 15.1 7.2 -8.7 18 8.6 E 26 35 14 19 1023.1 1020.7 0.0
16/07:30am 14.0 6.2 -7.6 21 7.9 E 26 41 14 22 1022.9 1020.5 0.0
16/07:00am 12.4 5.3 -7.8 23 7.2 E 22 32 12 17 1022.7 1020.3 0.0
16/06:30am 10.0 4.0 -7.0 29 6.0 ESE 17 24 9 13 1022.7 1020.3 0.0
16/06:00am 7.4 1.8 -6.5 36 4.8 ESE 15 19 8 10 1022.5 1020.2 0.0
16/05:30am 5.7 0.5 -6.4 41 4.1 ESE 13 15 7 8 1022.4 1020.1 0.0
16/05:00am 6.3 1.1 -6.3 40 4.3 ESE 13 17 7 9 1022.1 1019.8 0.0
16/04:30am 6.4 0.8 -6.5 39 4.4 ESE 15 20 8 11 1021.9 1019.6 0.0
16/04:00am 6.8 0.2 -6.7 37 4.6 SE 20 26 11 14 1021.5 1019.1 0.0
16/03:30am 7.7 0.0 -6.8 35 5.0 ESE 26 32 14 17 1021.4 1019.0 0.0
16/03:00am 7.9 0.9 -6.9 34 5.1 ESE 22 26 12 14 1021.7 1019.3 0.0
16/02:30am 7.8 0.8 -7.1 34 5.1 ESE 22 24 12 13 1021.8 1019.5 0.0
16/02:00am 8.7 1.3 -7.2 32 5.5 ESE 24 26 13 14 1022.0 1019.7 0.0

Other Formats:

Comma delimited format used in spreadsheet applications
http://www.bom.gov.au/fwo/IDW60801/IDW60801.94461.axf

JavaScript Object Notation format (JSON) in row-major order
http://www.bom.gov.au/fwo/IDW60801/IDW60801.94461.json